createdAt,value
2019-03-12T00:01:21.123Z,2.43
2019-03-12T00:03:54.391Z,2.42
2019-03-12T00:06:27.769Z,2.44
2019-03-12T00:08:58.195Z,2.43
2019-03-12T00:11:31.051Z,2.46
2019-03-12T00:14:01.488Z,2.49
2019-03-12T00:16:31.988Z,2.48
2019-03-12T00:19:02.362Z,2.47
2019-03-12T00:21:32.731Z,2.48
2019-03-12T00:24:02.983Z,2.48
2019-03-12T00:26:34.253Z,2.43
2019-03-12T00:29:04.550Z,2.37
2019-03-12T00:31:34.847Z,2.36
2019-03-12T00:34:06.693Z,2.34
2019-03-12T00:36:37.417Z,2.34
2019-03-12T00:39:08.377Z,2.35
2019-03-12T00:41:38.681Z,2.39
2019-03-12T00:44:09.907Z,2.43
2019-03-12T00:46:40.686Z,2.44
2019-03-12T00:49:12.568Z,2.41
2019-03-12T00:51:43.126Z,2.38
2019-03-12T00:54:13.847Z,2.30
2019-03-12T00:56:45.482Z,2.23
2019-03-12T00:59:15.735Z,2.18
2019-03-12T01:01:49.666Z,2.14
2019-03-12T01:04:20.048Z,2.10
2019-03-12T01:06:50.301Z,2.06
2019-03-12T01:09:20.626Z,2.02
2019-03-12T01:11:51.867Z,2.01
2019-03-12T01:14:22.077Z,2.01
2019-03-12T01:16:52.839Z,2.01
2019-03-12T01:19:23.136Z,2.03
2019-03-12T01:21:53.418Z,2.05
2019-03-12T01:24:23.758Z,2.07
2019-03-12T01:26:54.130Z,2.09
2019-03-12T01:29:24.417Z,2.10
2019-03-12T01:31:54.877Z,2.12
2019-03-12T01:34:25.459Z,2.08
2019-03-12T01:36:55.902Z,2.10
2019-03-12T01:39:29.479Z,2.10
2019-03-12T01:42:02.493Z,2.16
2019-03-12T01:44:32.858Z,2.19
2019-03-12T01:47:03.982Z,2.18
2019-03-12T01:49:34.520Z,2.24
2019-03-12T01:52:04.961Z,2.27
2019-03-12T01:54:36.731Z,2.29
2019-03-12T01:57:07.110Z,2.34
2019-03-12T01:59:37.441Z,2.36
2019-03-12T02:02:09.777Z,2.40
2019-03-12T02:04:41.913Z,2.46
2019-03-12T02:07:12.886Z,2.47
2019-03-12T02:09:43.343Z,2.53
2019-03-12T02:12:14.909Z,2.56
2019-03-12T02:14:47.495Z,2.52
2019-03-12T02:17:18.436Z,2.36
2019-03-12T02:19:49.182Z,2.48
2019-03-12T02:22:19.557Z,2.47
2019-03-12T02:24:52.877Z,2.46
2019-03-12T02:27:21.856Z,2.41
2019-03-12T02:29:52.205Z,2.40
2019-03-12T02:32:23.662Z,2.42
2019-03-12T02:34:53.980Z,2.43
2019-03-12T02:37:26.629Z,2.36
2019-03-12T02:39:58.213Z,2.28
2019-03-12T02:42:29.594Z,2.22
2019-03-12T02:45:00.668Z,2.29
2019-03-12T02:47:31.800Z,2.34
2019-03-12T02:50:02.205Z,2.29
2019-03-12T02:52:32.643Z,2.22
2019-03-12T02:55:03.531Z,2.23
2019-03-12T02:57:33.780Z,2.22
2019-03-12T03:00:04.978Z,2.26
2019-03-12T03:02:35.398Z,2.40
2019-03-12T03:05:06.130Z,2.41
2019-03-12T03:08:04.618Z,2.46
2019-03-12T03:10:34.969Z,2.46
2019-03-12T03:13:05.504Z,2.47
2019-03-12T03:15:43.449Z,2.47
2019-03-12T03:18:13.792Z,2.48
2019-03-12T03:20:44.371Z,2.52
2019-03-12T03:23:14.936Z,2.54
2019-03-12T03:25:47.101Z,2.63
2019-03-12T03:28:17.884Z,2.70
2019-03-12T03:30:49.789Z,2.77
2019-03-12T03:33:19.998Z,2.74
2019-03-12T03:35:50.357Z,2.79
2019-03-12T03:38:20.675Z,2.90
2019-03-12T03:40:51.306Z,2.96
2019-03-12T03:43:21.964Z,3.00
2019-03-12T03:45:52.325Z,3.05
2019-03-12T03:48:22.724Z,3.04
2019-03-12T03:50:53.282Z,3.02
2019-03-12T03:53:23.664Z,2.97
2019-03-12T03:55:53.926Z,2.94
2019-03-12T03:58:24.283Z,2.88
2019-03-12T04:00:54.813Z,2.86
2019-03-12T04:03:25.299Z,2.90
2019-03-12T04:05:55.686Z,2.94
2019-03-12T04:08:26.094Z,3.01
2019-03-12T04:10:56.672Z,2.99
2019-03-12T04:13:28.788Z,2.98
2019-03-12T04:15:59.497Z,2.99
2019-03-12T04:18:29.761Z,2.99
2019-03-12T04:21:00.493Z,2.92
2019-03-12T04:23:31.180Z,3.01
2019-03-12T04:26:02.450Z,3.00
2019-03-12T04:28:32.910Z,3.00
2019-03-12T04:31:03.838Z,3.01
2019-03-12T04:34:17.111Z,2.99
2019-03-12T04:36:48.681Z,2.98
2019-03-12T04:39:19.500Z,2.90
2019-03-12T04:41:50.691Z,2.94
2019-03-12T04:44:21.102Z,2.94
2019-03-12T04:46:51.687Z,2.94
2019-03-12T04:49:22.003Z,2.87
2019-03-12T04:51:52.866Z,2.93
2019-03-12T04:54:23.826Z,2.90
2019-03-12T04:56:55.289Z,2.92
2019-03-12T04:59:25.553Z,2.92
2019-03-12T05:01:56.366Z,3.01
2019-03-12T05:04:27.025Z,3.00
2019-03-12T05:06:57.371Z,3.04
2019-03-12T05:09:28.311Z,3.00
2019-03-12T05:11:59.089Z,2.92
2019-03-12T05:14:34.188Z,2.86
2019-03-12T05:17:28.574Z,2.80
2019-03-12T05:19:59.180Z,2.77
2019-03-12T05:22:29.796Z,2.85
2019-03-12T05:25:01.137Z,2.88
2019-03-12T05:27:31.465Z,2.89
2019-03-12T05:30:01.947Z,2.90
2019-03-12T05:32:32.487Z,2.90
2019-03-12T05:35:02.936Z,2.88
2019-03-12T05:37:34.263Z,2.89
2019-03-12T05:40:05.198Z,2.93
2019-03-12T05:42:35.518Z,2.90
2019-03-12T05:45:06.486Z,2.96
2019-03-12T05:47:37.784Z,2.92
2019-03-12T05:50:08.805Z,3.01
2019-03-12T05:52:39.279Z,2.99
2019-03-12T05:55:10.204Z,3.07
2019-03-12T05:57:41.895Z,3.11
2019-03-12T06:00:13.367Z,3.12
2019-03-12T06:02:43.695Z,3.19
2019-03-12T06:05:14.523Z,3.25
2019-03-12T06:07:45.280Z,3.28
2019-03-12T06:10:15.987Z,3.31
2019-03-12T06:12:46.528Z,3.30
2019-03-12T06:15:18.080Z,3.36
2019-03-12T06:17:48.617Z,3.39
2019-03-12T06:20:19.404Z,3.45
2019-03-12T06:22:49.769Z,3.55
2019-03-12T06:25:21.326Z,3.65
2019-03-12T06:27:52.158Z,3.69
2019-03-12T06:30:25.876Z,3.79
2019-03-12T06:33:00.133Z,3.88
2019-03-12T06:35:39.121Z,3.88
2019-03-12T06:38:26.294Z,3.99
2019-03-12T06:41:20.599Z,4.04
2019-03-12T06:43:56.874Z,4.07
2019-03-12T06:46:46.207Z,4.10
2019-03-12T06:49:22.616Z,4.07
2019-03-12T06:52:12.323Z,4.13
2019-03-12T06:55:01.863Z,4.13
2019-03-12T06:57:54.107Z,4.10
2019-03-12T07:00:42.723Z,4.09
2019-03-12T07:03:24.945Z,4.11
2019-03-12T07:06:06.313Z,4.13
2019-03-12T07:08:53.239Z,4.17
2019-03-12T07:11:47.835Z,4.19
2019-03-12T07:14:24.285Z,4.17
2019-03-12T07:17:08.639Z,4.14
2019-03-12T07:20:03.678Z,4.13
2019-03-12T07:22:50.565Z,4.20
2019-03-12T07:25:38.755Z,4.23
2019-03-12T07:28:22.605Z,4.32
2019-03-12T07:31:07.902Z,4.32
2019-03-12T07:33:55.410Z,4.34
2019-03-12T07:36:40.839Z,4.43
2019-03-12T07:39:46.560Z,4.39
2019-03-12T07:42:31.674Z,4.38
2019-03-12T07:45:14.356Z,4.37
2019-03-12T07:48:06.923Z,4.33
2019-03-12T07:51:02.618Z,4.32
2019-03-12T07:53:58.614Z,4.31
2019-03-12T07:56:40.687Z,4.34
2019-03-12T07:59:30.649Z,4.33
2019-03-12T08:02:24.727Z,4.34
2019-03-12T08:05:28.472Z,4.40
2019-03-12T08:08:21.330Z,4.49
2019-03-12T08:10:56.615Z,4.59
2019-03-12T08:13:36.229Z,4.67
2019-03-12T08:16:28.693Z,4.76
2019-03-12T08:19:11.099Z,4.80
2019-03-12T08:22:06.615Z,4.85
2019-03-12T08:24:57.656Z,4.86
2019-03-12T08:27:47.025Z,4.88
2019-03-12T08:30:38.570Z,4.95
2019-03-12T08:33:28.044Z,5.09
2019-03-12T08:36:07.585Z,5.23
2019-03-12T08:38:53.435Z,5.31
2019-03-12T08:41:42.946Z,5.39
2019-03-12T08:44:22.423Z,5.52
2019-03-12T08:47:04.106Z,5.62
2019-03-12T08:50:12.730Z,5.68
2019-03-12T08:52:50.136Z,5.94
2019-03-12T08:55:42.261Z,6.15
2019-03-12T08:58:29.926Z,6.28
2019-03-12T09:01:11.888Z,6.41
2019-03-12T09:03:59.933Z,6.37
2019-03-12T09:06:37.069Z,6.28
2019-03-12T09:09:14.805Z,6.39
2019-03-12T09:11:56.934Z,6.55
2019-03-12T09:14:35.925Z,6.76
2019-03-12T09:17:26.108Z,6.81
2019-03-12T09:20:30.893Z,6.85
2019-03-12T09:23:26.235Z,6.88
2019-03-12T09:26:13.903Z,6.76
2019-03-12T09:29:15.775Z,6.70
2019-03-12T09:32:01.216Z,6.59
2019-03-12T09:34:50.542Z,6.55
2019-03-12T09:37:48.553Z,6.49
2019-03-12T09:40:46.698Z,6.54
2019-03-12T09:43:40.062Z,6.45
2019-03-12T09:46:27.461Z,6.34
2019-03-12T09:49:15.305Z,6.36
2019-03-12T09:52:19.118Z,6.43
2019-03-12T09:55:11.535Z,6.47
2019-03-12T09:57:59.812Z,6.59
2019-03-12T10:00:47.873Z,6.66
2019-03-12T10:03:29.655Z,6.65
2019-03-12T10:06:12.766Z,6.68
2019-03-12T10:08:49.466Z,6.77
2019-03-12T10:11:52.118Z,6.75
2019-03-12T10:14:35.881Z,6.72
2019-03-12T10:17:31.389Z,6.79
2019-03-12T10:20:19.923Z,6.82
2019-03-12T10:23:17.127Z,6.76
2019-03-12T10:26:05.359Z,6.61
2019-03-12T10:28:57.704Z,6.57
2019-03-12T10:31:35.693Z,6.52
2019-03-12T10:34:29.500Z,6.52
2019-03-12T10:37:12.388Z,6.54
2019-03-12T10:40:07.997Z,6.57
2019-03-12T10:43:30.917Z,6.71
2019-03-12T10:46:27.232Z,6.81
2019-03-12T10:48:57.532Z,6.82
2019-03-12T10:51:27.795Z,6.83
2019-03-12T10:53:58.934Z,6.83
2019-03-12T10:56:30.203Z,6.78
2019-03-12T10:59:00.660Z,6.79
2019-03-12T11:01:31.222Z,6.75
2019-03-12T11:04:01.635Z,6.73
2019-03-12T11:06:32.190Z,6.72
2019-03-12T11:09:04.286Z,6.78
2019-03-12T11:11:35.093Z,6.93
2019-03-12T11:14:06.614Z,7.05
2019-03-12T11:16:39.681Z,7.11
2019-03-12T11:19:10.368Z,7.19
2019-03-12T11:21:42.129Z,7.20
2019-03-12T11:24:12.676Z,7.15
2019-03-12T11:26:43.391Z,7.02
2019-03-12T11:29:13.890Z,6.98
2019-03-12T11:31:44.235Z,6.92
2019-03-12T11:34:15.701Z,6.77
2019-03-12T11:36:46.185Z,6.63
2019-03-12T11:39:16.697Z,6.50
2019-03-12T11:41:47.808Z,6.40
2019-03-12T11:44:18.173Z,6.33
2019-03-12T11:46:48.769Z,6.09
2019-03-12T11:49:19.415Z,6.01
2019-03-12T11:51:49.877Z,5.97
2019-03-12T11:54:23.927Z,5.99
2019-03-12T11:56:55.919Z,5.95
2019-03-12T11:59:34.665Z,5.90
2019-03-12T12:02:05.511Z,5.89
2019-03-12T12:04:36.089Z,5.88
2019-03-12T12:07:06.729Z,5.80
2019-03-12T12:09:37.397Z,5.78
2019-03-12T12:12:07.667Z,5.81
2019-03-12T12:14:38.110Z,5.78
2019-03-12T12:17:08.976Z,5.79
2019-03-12T12:19:40.256Z,5.78
2019-03-12T12:22:10.527Z,5.78
2019-03-12T12:24:42.047Z,5.80
2019-03-12T12:27:13.375Z,5.80
2019-03-12T12:29:43.955Z,5.75
2019-03-12T12:32:14.131Z,5.79
2019-03-12T12:34:45.446Z,5.86
2019-03-12T12:37:15.830Z,5.92
2019-03-12T12:39:46.520Z,5.97
2019-03-12T12:42:16.842Z,6.03
2019-03-12T12:44:47.506Z,6.07
2019-03-12T12:47:19.773Z,6.08
2019-03-12T12:49:53.346Z,6.13
2019-03-12T12:52:23.881Z,6.17
2019-03-12T12:54:54.522Z,6.20
2019-03-12T12:57:25.289Z,6.21
2019-03-12T12:59:55.659Z,6.17
2019-03-12T13:02:26.254Z,6.15
2019-03-12T13:04:56.753Z,6.15
2019-03-12T13:07:28.709Z,6.19
2019-03-12T13:10:02.077Z,6.20
2019-03-12T13:12:32.539Z,6.29
2019-03-12T13:15:03.197Z,6.38
2019-03-12T13:17:34.733Z,6.47
2019-03-12T13:20:06.008Z,6.51
2019-03-12T13:22:36.216Z,6.59
2019-03-12T13:25:07.688Z,6.66
2019-03-12T13:27:42.487Z,6.70
2019-03-12T13:30:15.960Z,6.61
2019-03-12T13:32:46.270Z,6.50
2019-03-12T13:35:16.792Z,6.50
2019-03-12T13:37:48.044Z,6.51
2019-03-12T13:40:18.990Z,6.51
2019-03-12T13:42:51.354Z,6.46
2019-03-12T13:45:23.383Z,6.43
2019-03-12T13:47:53.746Z,6.35
2019-03-12T13:50:25.894Z,6.27
2019-03-12T13:52:56.548Z,6.22
2019-03-12T13:55:29.694Z,6.10
2019-03-12T13:58:03.886Z,6.07
2019-03-12T14:00:36.855Z,6.04
2019-03-12T14:03:08.738Z,5.95
2019-03-12T14:05:40.365Z,5.86
2019-03-12T14:08:14.081Z,5.86
2019-03-12T14:10:46.714Z,5.83
2019-03-12T14:13:20.860Z,5.86
2019-03-12T14:15:51.501Z,5.85
2019-03-12T14:18:26.697Z,5.88
2019-03-12T14:21:16.336Z,5.90
2019-03-12T14:23:56.966Z,5.93
2019-03-12T14:26:29.787Z,5.96
2019-03-12T14:29:00.838Z,6.01
2019-03-12T14:31:35.566Z,6.03
2019-03-12T14:34:08.215Z,6.07
2019-03-12T14:36:44.610Z,6.17
2019-03-12T14:39:19.116Z,6.24
2019-03-12T14:41:51.898Z,6.29
2019-03-12T14:44:23.723Z,6.35
2019-03-12T14:46:55.086Z,6.39
2019-03-12T14:49:25.556Z,6.41
2019-03-12T14:52:29.339Z,6.36
2019-03-12T14:54:59.838Z,6.34
2019-03-12T14:57:30.571Z,6.28
2019-03-12T15:00:01.341Z,6.32
2019-03-12T15:02:31.843Z,6.29
2019-03-12T15:05:02.449Z,6.28
2019-03-12T15:07:32.927Z,6.28
2019-03-12T15:10:03.708Z,6.26
2019-03-12T15:12:34.082Z,6.25
2019-03-12T15:15:05.060Z,6.24
2019-03-12T15:17:35.633Z,6.23
2019-03-12T15:20:06.278Z,6.23
2019-03-12T15:22:36.618Z,6.28
2019-03-12T15:25:07.639Z,6.31
2019-03-12T15:27:38.978Z,6.34
2019-03-12T15:30:13.060Z,6.33
2019-03-12T15:32:44.796Z,6.36
2019-03-12T15:35:15.668Z,6.36
2019-03-12T15:37:47.439Z,6.40
2019-03-12T15:40:18.121Z,6.42
2019-03-12T15:42:49.778Z,6.49
2019-03-12T15:45:20.131Z,6.53
2019-03-12T15:47:50.531Z,6.58
2019-03-12T15:50:21.122Z,6.61
2019-03-12T15:52:52.216Z,6.65
2019-03-12T15:55:22.994Z,6.71
2019-03-12T15:57:53.317Z,6.74
2019-03-12T16:00:26.897Z,6.75
2019-03-12T16:02:57.823Z,6.79
2019-03-12T16:05:29.699Z,6.81
2019-03-12T16:08:03.283Z,6.81
2019-03-12T16:10:35.981Z,6.85
2019-03-12T16:13:07.935Z,6.86
2019-03-12T16:15:41.295Z,6.88
2019-03-12T16:18:14.615Z,6.88
2019-03-12T16:20:44.621Z,6.82
2019-03-12T16:23:18.593Z,6.82
2019-03-12T16:25:50.898Z,6.80
2019-03-12T16:28:23.996Z,6.77
2019-03-12T16:30:54.415Z,6.71
2019-03-12T16:33:27.799Z,6.71
2019-03-12T16:35:58.180Z,6.72
2019-03-12T16:38:29.279Z,6.70
2019-03-12T16:41:00.484Z,6.70
2019-03-12T16:43:31.607Z,6.69
2019-03-12T16:46:02.394Z,6.70
2019-03-12T16:48:32.748Z,6.69
2019-03-12T16:51:03.070Z,6.66
2019-03-12T16:53:33.394Z,6.57
2019-03-12T16:56:04.085Z,6.58
2019-03-12T16:58:37.089Z,6.56
2019-03-12T17:01:08.185Z,6.57
2019-03-12T17:03:38.546Z,6.57
2019-03-12T17:06:11.314Z,6.61
2019-03-12T17:08:41.769Z,6.65
2019-03-12T17:11:14.791Z,6.66
2019-03-12T17:13:47.750Z,6.70
2019-03-12T17:16:19.397Z,6.73
2019-03-12T17:18:50.227Z,6.77
2019-03-12T17:21:23.011Z,6.78
2019-03-12T17:23:54.909Z,6.79
2019-03-12T17:26:29.947Z,6.84
2019-03-12T17:29:03.629Z,6.88
2019-03-12T17:31:34.663Z,6.93
2019-03-12T17:34:12.722Z,6.93
2019-03-12T17:37:03.673Z,6.95
2019-03-12T17:39:30.812Z,6.95
2019-03-12T17:42:03.596Z,6.92
2019-03-12T17:44:37.008Z,6.90
2019-03-12T17:47:08.187Z,6.88
2019-03-12T17:49:41.094Z,6.82
2019-03-12T17:52:15.857Z,6.85
2019-03-12T17:54:50.200Z,6.84
2019-03-12T17:57:21.997Z,6.84
2019-03-12T17:59:54.923Z,6.81
2019-03-12T18:02:41.895Z,6.79
2019-03-12T18:05:05.172Z,6.77
2019-03-12T18:07:36.501Z,6.75
2019-03-12T18:10:07.045Z,6.69
2019-03-12T18:12:45.908Z,6.69
2019-03-12T18:15:19.382Z,6.69
2019-03-12T18:17:52.253Z,6.70
2019-03-12T18:20:23.545Z,6.66
2019-03-12T18:22:54.225Z,6.64
2019-03-12T18:25:26.477Z,6.57
2019-03-12T18:28:00.986Z,6.52
2019-03-12T18:30:35.384Z,6.42
2019-03-12T18:33:06.095Z,6.35
2019-03-12T18:35:37.407Z,6.37
2019-03-12T18:38:10.752Z,6.36
2019-03-12T18:40:45.096Z,6.33
2019-03-12T18:43:19.197Z,6.32
2019-03-12T18:45:49.834Z,6.27
2019-03-12T18:48:24.574Z,6.24
2019-03-12T18:51:03.487Z,6.16
2019-03-12T18:53:34.352Z,6.11
2019-03-12T18:56:08.801Z,6.10
2019-03-12T18:58:43.178Z,6.12
2019-03-12T19:01:22.081Z,6.13
2019-03-12T19:03:52.379Z,6.15
2019-03-12T19:06:23.220Z,6.13
2019-03-12T19:08:54.485Z,6.13
2019-03-12T19:11:27.160Z,6.12
2019-03-12T19:13:59.370Z,6.08
2019-03-12T19:16:29.955Z,6.08
2019-03-12T19:19:01.024Z,6.03
2019-03-12T19:21:32.682Z,6.05
2019-03-12T19:24:03.220Z,6.08
2019-03-12T19:26:34.129Z,5.97
2019-03-12T19:29:06.838Z,5.93
2019-03-12T19:32:13.722Z,5.91
2019-03-12T19:34:44.946Z,5.93
2019-03-12T19:37:15.522Z,5.93
2019-03-12T19:39:46.074Z,5.95
2019-03-12T19:42:17.281Z,5.98
2019-03-12T19:44:47.852Z,5.97
2019-03-12T19:47:18.836Z,5.95
2019-03-12T19:49:49.605Z,5.95
2019-03-12T19:52:20.372Z,5.94
2019-03-12T19:54:51.430Z,5.99
2019-03-12T19:57:23.269Z,5.98
2019-03-12T19:59:54.553Z,6.04
2019-03-12T20:02:28.277Z,6.02
2019-03-12T20:05:01.941Z,6.04
2019-03-12T20:07:32.618Z,6.02
2019-03-12T20:10:44.211Z,5.98
2019-03-12T20:14:03.788Z,5.97
2019-03-12T20:17:24.103Z,5.95
2019-03-12T20:20:41.700Z,5.91
2019-03-12T20:23:54.601Z,5.90
2019-03-12T20:27:08.542Z,5.93
2019-03-12T20:30:14.650Z,5.94
2019-03-12T20:33:21.790Z,5.90
2019-03-12T20:36:29.033Z,5.84
2019-03-12T20:39:36.393Z,5.78
2019-03-12T20:43:05.559Z,5.70
2019-03-12T20:45:55.714Z,5.68
2019-03-12T20:49:10.948Z,5.67
2019-03-12T20:52:11.174Z,5.71
2019-03-12T20:55:16.937Z,5.78
2019-03-12T20:58:25.425Z,5.84
2019-03-12T21:01:50.849Z,5.93
2019-03-12T21:05:13.190Z,5.98
2019-03-12T21:08:43.041Z,6.08
2019-03-12T21:11:48.787Z,6.20
2019-03-12T21:14:58.861Z,6.32
2019-03-12T21:18:13.565Z,6.30
2019-03-12T21:21:36.101Z,6.17
2019-03-12T21:24:59.871Z,6.01
2019-03-12T21:27:57.826Z,5.86
2019-03-12T21:30:28.559Z,5.69
2019-03-12T21:32:59.869Z,5.56
2019-03-12T21:35:30.196Z,5.53
2019-03-12T21:38:00.867Z,5.48
2019-03-12T21:40:31.123Z,5.42
2019-03-12T21:43:02.130Z,5.35
2019-03-12T21:45:32.673Z,5.31
2019-03-12T21:48:04.083Z,5.26
2019-03-12T21:50:34.378Z,5.25
2019-03-12T21:53:05.736Z,5.20
2019-03-12T21:55:37.896Z,5.16
2019-03-12T21:58:08.638Z,5.12
2019-03-12T22:00:38.928Z,5.10
2019-03-12T22:03:09.533Z,5.09
2019-03-12T22:05:39.906Z,5.08
2019-03-12T22:08:11.279Z,5.08
2019-03-12T22:10:41.953Z,5.11
2019-03-12T22:13:12.311Z,5.13
2019-03-12T22:15:43.122Z,5.12
2019-03-12T22:18:13.824Z,5.13
2019-03-12T22:20:45.135Z,5.16
2019-03-12T22:23:19.936Z,5.18
2019-03-12T22:25:50.230Z,5.19
2019-03-12T22:28:20.954Z,5.26
2019-03-12T22:30:51.184Z,5.32
2019-03-12T22:33:22.096Z,5.35
2019-03-12T22:35:53.912Z,5.37
2019-03-12T22:38:24.402Z,5.41
2019-03-12T22:40:54.591Z,5.44
2019-03-12T22:43:26.064Z,5.43
2019-03-12T22:45:59.510Z,5.45
2019-03-12T22:48:30.451Z,5.45
2019-03-12T22:51:01.588Z,5.41
2019-03-12T22:53:32.138Z,5.44
2019-03-12T22:56:02.720Z,5.43
2019-03-12T22:58:36.675Z,5.41
2019-03-12T23:01:10.298Z,5.41
2019-03-12T23:03:44.252Z,5.42
2019-03-12T23:06:14.841Z,5.42
2019-03-12T23:08:53.101Z,5.41
2019-03-12T23:11:24.839Z,5.41
2019-03-12T23:13:55.656Z,5.42
2019-03-12T23:16:27.155Z,5.38
2019-03-12T23:19:00.276Z,5.36
2019-03-12T23:21:31.510Z,5.38
2019-03-12T23:24:01.763Z,5.39
2019-03-12T23:26:32.434Z,5.39
2019-03-12T23:29:02.812Z,5.37
2019-03-12T23:31:33.157Z,5.38
2019-03-12T23:34:03.466Z,5.35
2019-03-12T23:36:33.868Z,5.36
2019-03-12T23:39:05.286Z,5.39
2019-03-12T23:41:35.647Z,5.37
2019-03-12T23:44:06.251Z,5.38
2019-03-12T23:46:36.516Z,5.38
2019-03-12T23:49:06.940Z,5.36
2019-03-12T23:51:37.836Z,5.39
2019-03-12T23:54:08.125Z,5.41
2019-03-12T23:56:38.895Z,5.39
2019-03-12T23:59:09.925Z,5.38
